createdAt,value
2022-09-15T00:00:21.274Z,5.93
2022-09-15T00:02:49.137Z,5.37
2022-09-15T00:05:17.206Z,5.13
2022-09-15T00:07:44.681Z,3.72
2022-09-15T00:10:12.269Z,5.20
2022-09-15T00:12:39.913Z,5.40
2022-09-15T00:15:08.737Z,7.53
2022-09-15T00:17:37.510Z,4.63
2022-09-15T00:20:07.256Z,5.83
2022-09-15T00:22:35.019Z,3.23
2022-09-15T00:25:02.510Z,4.50
2022-09-15T00:27:29.959Z,3.27
2022-09-15T00:29:57.476Z,4.20
2022-09-15T00:32:24.982Z,10.13
2022-09-15T00:34:53.865Z,4.53
2022-09-15T00:37:21.825Z,3.67
2022-09-15T00:39:49.661Z,3.67
2022-09-15T00:42:18.383Z,4.80
2022-09-15T00:44:51.898Z,4.87
2022-09-15T00:47:21.911Z,3.30
2022-09-15T00:49:58.409Z,6.60
2022-09-15T00:52:32.837Z,5.10
2022-09-15T00:55:06.416Z,3.03
2022-09-15T00:57:38.146Z,4.23
2022-09-15T01:00:10.561Z,5.67
2022-09-15T01:02:39.777Z,4.50
2022-09-15T01:05:10.844Z,6.27
2022-09-15T01:07:44.252Z,5.63
2022-09-15T01:10:16.818Z,4.70
2022-09-15T01:12:44.483Z,7.43
2022-09-15T01:15:12.239Z,4.70
2022-09-15T01:17:50.813Z,8.40
2022-09-15T01:20:34.979Z,6.35
2022-09-15T01:23:24.985Z,9.33
2022-09-15T01:26:25.526Z,5.97
2022-09-15T01:29:12.271Z,13.20
2022-09-15T01:31:59.981Z,9.90
2022-09-15T01:34:34.088Z,10.47
2022-09-15T01:37:07.068Z,5.70
2022-09-15T01:39:40.880Z,5.77
2022-09-15T01:42:13.710Z,8.27
2022-09-15T01:44:46.054Z,6.83
2022-09-15T01:47:18.537Z,10.13
2022-09-15T01:49:53.139Z,9.10
2022-09-15T01:52:23.341Z,11.87
2022-09-15T01:54:56.157Z,7.30
2022-09-15T01:57:24.342Z,7.87
2022-09-15T01:59:54.592Z,10.60
2022-09-15T02:02:27.857Z,10.50
2022-09-15T02:05:00.974Z,10.10
2022-09-15T02:07:37.143Z,10.63
2022-09-15T02:10:14.187Z,12.80
2022-09-15T02:12:50.648Z,7.53
2022-09-15T02:15:25.741Z,13.73
2022-09-15T02:17:55.565Z,12.00
2022-09-15T02:20:34.565Z,7.13
2022-09-15T02:23:09.050Z,13.57
2022-09-15T02:25:41.231Z,8.93
2022-09-15T02:28:12.580Z,10.37
2022-09-15T02:30:42.740Z,8.10
2022-09-15T02:33:16.806Z,10.07
2022-09-15T02:35:44.939Z,6.50
2022-09-15T02:38:13.794Z,10.37
2022-09-15T02:40:44.374Z,13.20
2022-09-15T02:43:14.148Z,8.53
2022-09-15T02:45:41.691Z,7.63
2022-09-15T02:48:10.217Z,10.00
2022-09-15T02:50:39.857Z,6.70
2022-09-15T02:53:07.801Z,7.20
2022-09-15T02:55:35.651Z,13.57
2022-09-15T02:58:03.230Z,10.63
2022-09-15T03:00:30.916Z,8.57
2022-09-15T03:02:58.537Z,8.03
2022-09-15T03:05:27.552Z,10.13
2022-09-15T03:07:57.312Z,9.37
2022-09-15T03:10:25.975Z,9.27
2022-09-15T03:12:55.223Z,9.87
2022-09-15T03:15:24.691Z,8.80
2022-09-15T03:17:52.748Z,12.67
2022-09-15T03:20:22.669Z,11.73
2022-09-15T03:22:50.797Z,10.73
2022-09-15T03:25:19.940Z,7.87
2022-09-15T03:27:47.683Z,11.50
2022-09-15T03:30:15.749Z,12.10
2022-09-15T03:32:43.526Z,12.70
2022-09-15T03:35:11.627Z,9.67
2022-09-15T03:37:39.284Z,9.33
2022-09-15T03:40:10.377Z,8.83
2022-09-15T03:42:39.264Z,10.00
2022-09-15T03:45:07.586Z,9.27
2022-09-15T03:47:35.148Z,13.07
2022-09-15T03:50:02.585Z,13.80
2022-09-15T03:52:32.189Z,9.60
2022-09-15T03:54:59.672Z,10.13
2022-09-15T03:57:27.157Z,10.30
2022-09-15T03:59:56.056Z,10.50
2022-09-15T04:02:23.667Z,10.00
2022-09-15T04:04:51.141Z,7.10
2022-09-15T04:07:18.556Z,7.13
2022-09-15T04:09:46.023Z,9.90
2022-09-15T04:12:13.534Z,8.47
2022-09-15T04:14:41.050Z,9.30
2022-09-15T04:17:10.598Z,11.03
2022-09-15T04:19:38.221Z,12.03
2022-09-15T04:22:05.784Z,8.50
2022-09-15T04:24:34.978Z,8.00
2022-09-15T04:27:02.475Z,9.33
2022-09-15T04:29:29.924Z,11.43
2022-09-15T04:31:57.434Z,8.53
2022-09-15T04:34:26.373Z,9.27
2022-09-15T04:36:53.902Z,8.88
2022-09-15T04:39:22.394Z,6.60
2022-09-15T04:41:49.883Z,16.20
2022-09-15T04:44:17.368Z,8.43
2022-09-15T04:46:44.914Z,12.70
2022-09-15T04:49:12.970Z,10.73
2022-09-15T04:51:41.896Z,8.10
2022-09-15T04:54:09.331Z,10.93
2022-09-15T04:56:36.765Z,8.50
2022-09-15T04:59:04.467Z,8.63
2022-09-15T05:01:34.977Z,10.40
2022-09-15T05:04:04.273Z,9.60
2022-09-15T05:06:34.643Z,9.57
2022-09-15T05:09:09.247Z,11.10
2022-09-15T05:11:38.242Z,7.23
2022-09-15T05:14:06.050Z,9.00
2022-09-15T05:16:33.742Z,5.43
2022-09-15T05:19:02.968Z,7.87
2022-09-15T05:21:30.442Z,8.47
2022-09-15T05:23:58.129Z,7.20
2022-09-15T05:26:29.052Z,6.97
2022-09-15T05:28:57.296Z,7.60
2022-09-15T05:31:26.960Z,8.13
2022-09-15T05:33:55.387Z,8.77
2022-09-15T05:36:25.872Z,6.50
2022-09-15T05:38:53.642Z,5.00
2022-09-15T05:41:21.505Z,7.63
2022-09-15T05:43:52.246Z,6.17
2022-09-15T05:46:20.470Z,8.20
2022-09-15T05:48:48.266Z,14.20
2022-09-15T05:51:15.853Z,14.20
2022-09-15T05:53:43.454Z,8.20
2022-09-15T05:56:13.031Z,3.97
2022-09-15T05:58:41.847Z,11.97
2022-09-15T06:01:13.734Z,14.77
2022-09-15T06:03:41.680Z,5.57
2022-09-15T06:06:09.251Z,6.07
2022-09-15T06:08:40.543Z,5.40
2022-09-15T06:11:13.341Z,5.17
2022-09-15T06:13:41.076Z,6.47
2022-09-15T06:16:12.464Z,11.23
2022-09-15T06:18:41.431Z,5.37
2022-09-15T06:21:11.094Z,9.80
2022-09-15T06:23:39.172Z,6.10
2022-09-15T06:26:11.168Z,5.43
2022-09-15T06:28:39.334Z,4.27
2022-09-15T06:31:13.025Z,6.93
2022-09-15T06:33:43.237Z,8.43
2022-09-15T06:36:11.639Z,5.10
2022-09-15T06:38:39.919Z,4.33
2022-09-15T06:41:08.164Z,7.90
2022-09-15T06:43:36.417Z,5.20
2022-09-15T06:46:06.077Z,4.90
2022-09-15T06:48:35.033Z,4.30
2022-09-15T06:51:05.541Z,4.13
2022-09-15T06:53:34.529Z,5.00
2022-09-15T06:56:05.245Z,6.35
2022-09-15T06:58:33.342Z,3.73
2022-09-15T07:01:05.114Z,5.00
2022-09-15T07:03:32.848Z,7.97
2022-09-15T07:06:01.781Z,4.13
2022-09-15T07:08:29.229Z,5.27
2022-09-15T07:10:57.237Z,3.73
2022-09-15T07:13:25.178Z,4.27
2022-09-15T07:15:53.628Z,4.37
2022-09-15T07:18:21.677Z,6.00
2022-09-15T07:20:49.133Z,5.23
2022-09-15T07:23:18.410Z,6.00
2022-09-15T07:25:46.063Z,5.00
2022-09-15T07:28:14.121Z,4.10
2022-09-15T07:30:42.270Z,3.55
2022-09-15T07:33:11.854Z,4.90
2022-09-15T07:35:42.456Z,4.10
2022-09-15T07:38:10.375Z,4.43
2022-09-15T07:40:39.505Z,6.90
2022-09-15T07:43:07.555Z,5.50
2022-09-15T07:45:36.092Z,6.27
2022-09-15T07:48:03.759Z,5.13
2022-09-15T07:50:31.249Z,7.97
2022-09-15T07:52:59.068Z,4.90
2022-09-15T07:55:26.746Z,10.27
2022-09-15T07:58:01.851Z,4.37
2022-09-15T08:00:29.419Z,2.60
2022-09-15T08:02:57.032Z,7.87
2022-09-15T08:05:27.894Z,3.43
2022-09-15T08:07:56.174Z,4.70
2022-09-15T08:10:25.035Z,4.40
2022-09-15T08:12:52.964Z,3.53
2022-09-15T08:15:22.005Z,5.57
2022-09-15T08:17:49.453Z,3.23
2022-09-15T08:20:17.008Z,5.10
2022-09-15T08:22:45.493Z,4.33
2022-09-15T08:25:13.388Z,4.43
2022-09-15T08:27:41.114Z,2.77
2022-09-15T08:30:09.283Z,6.70
2022-09-15T08:32:38.069Z,2.90
2022-09-15T08:35:07.488Z,1.40
2022-09-15T08:37:35.124Z,6.17
2022-09-15T08:40:03.278Z,1.70
2022-09-15T08:42:31.347Z,2.80
2022-09-15T08:45:02.861Z,3.00
2022-09-15T08:47:34.952Z,1.50
2022-09-15T08:50:10.162Z,5.17
2022-09-15T08:52:41.604Z,3.80
2022-09-15T08:55:16.809Z,2.93
2022-09-15T08:57:44.905Z,2.07
2022-09-15T09:00:16.400Z,2.30
2022-09-15T09:03:10.052Z,3.80
2022-09-15T09:05:51.921Z,4.23
2022-09-15T09:08:40.466Z,2.00
2022-09-15T09:11:14.737Z,2.30
2022-09-15T09:13:48.039Z,3.60
2022-09-15T09:16:34.368Z,3.37
2022-09-15T09:19:16.001Z,4.20
2022-09-15T09:21:51.166Z,6.23
2022-09-15T09:24:30.378Z,3.47
2022-09-15T09:26:58.624Z,2.30
2022-09-15T09:29:33.921Z,4.53
2022-09-15T09:32:03.241Z,3.37
2022-09-15T09:34:36.254Z,3.53
2022-09-15T09:37:12.401Z,3.67
2022-09-15T09:39:39.887Z,2.37
2022-09-15T09:42:12.190Z,4.40
2022-09-15T09:44:41.538Z,9.70
2022-09-15T09:47:09.152Z,2.97
2022-09-15T09:49:41.828Z,1.97
2022-09-15T09:52:10.600Z,3.17
2022-09-15T09:54:38.096Z,8.80
2022-09-15T09:57:29.750Z,8.07
2022-09-15T09:59:57.813Z,3.20
2022-09-15T10:02:27.475Z,3.00
2022-09-15T10:04:56.623Z,3.33
2022-09-15T10:07:27.191Z,7.20
2022-09-15T10:09:57.097Z,3.03
2022-09-15T10:12:29.419Z,2.90
2022-09-15T10:15:00.077Z,2.30
2022-09-15T10:17:39.570Z,1.37
2022-09-15T10:20:23.944Z,5.70
2022-09-15T10:22:53.445Z,3.07
2022-09-15T10:25:55.090Z,3.07
2022-09-15T10:28:23.682Z,5.33
2022-09-15T10:31:05.987Z,1.63
2022-09-15T10:33:35.231Z,1.97
2022-09-15T10:36:08.564Z,4.80
2022-09-15T10:38:44.248Z,2.40
2022-09-15T10:41:23.037Z,2.90
2022-09-15T10:44:27.220Z,3.63
2022-09-15T10:47:03.802Z,5.63
2022-09-15T10:49:47.789Z,1.43
2022-09-15T10:52:22.324Z,3.73
2022-09-15T10:55:11.210Z,1.73
2022-09-15T10:57:56.147Z,8.83
2022-09-15T11:00:25.581Z,3.57
2022-09-15T11:03:11.514Z,3.17
2022-09-15T11:05:52.872Z,1.37
2022-09-15T11:08:51.269Z,2.17
2022-09-15T11:11:28.887Z,2.23
2022-09-15T11:14:07.296Z,2.83
2022-09-15T11:16:51.386Z,2.80
2022-09-15T11:19:32.411Z,4.07
2022-09-15T11:22:04.659Z,2.30
2022-09-15T11:24:42.121Z,3.53
2022-09-15T11:27:21.064Z,4.37
2022-09-15T11:30:06.377Z,1.60
2022-09-15T11:32:41.484Z,4.90
2022-09-15T11:35:31.113Z,4.10
2022-09-15T11:38:04.638Z,7.30
2022-09-15T11:40:38.569Z,1.93
2022-09-15T11:43:17.385Z,1.80
2022-09-15T11:45:48.965Z,4.00
2022-09-15T11:48:22.444Z,6.10
2022-09-15T11:50:52.997Z,4.50
2022-09-15T11:53:29.320Z,0.73
2022-09-15T11:56:06.667Z,1.40
2022-09-15T11:58:46.537Z,1.13
2022-09-15T12:01:20.466Z,1.53
2022-09-15T12:03:52.700Z,4.83
2022-09-15T12:06:27.707Z,1.53
2022-09-15T12:09:00.723Z,3.90
2022-09-15T12:11:32.103Z,2.93
2022-09-15T12:14:02.947Z,1.60
2022-09-15T12:16:30.941Z,4.67
2022-09-15T12:19:03.483Z,1.20
2022-09-15T12:21:36.101Z,4.57
2022-09-15T12:24:13.819Z,1.10
2022-09-15T12:26:43.356Z,2.73
2022-09-15T12:29:32.603Z,2.97
2022-09-15T12:32:21.236Z,1.20
2022-09-15T12:35:00.398Z,2.00
2022-09-15T12:37:36.256Z,6.77
2022-09-15T12:40:07.040Z,2.73
2022-09-15T12:42:36.985Z,4.83
2022-09-15T12:45:20.799Z,8.70
2022-09-15T12:47:54.547Z,2.90
2022-09-15T12:50:28.619Z,2.83
2022-09-15T12:53:00.813Z,5.50
2022-09-15T12:55:31.968Z,1.30
2022-09-15T12:58:08.361Z,2.20
2022-09-15T13:00:49.879Z,1.97
2022-09-15T13:03:49.970Z,1.73
2022-09-15T13:06:22.526Z,1.00
2022-09-15T13:08:52.465Z,2.37
2022-09-15T13:11:31.768Z,1.87
2022-09-15T13:14:11.313Z,2.53
2022-09-15T13:16:49.207Z,0.90
2022-09-15T13:19:23.310Z,2.90
2022-09-15T13:21:59.501Z,4.20
2022-09-15T13:24:39.243Z,4.20
2022-09-15T13:27:08.199Z,2.13
2022-09-15T13:29:42.001Z,3.80
2022-09-15T13:32:22.757Z,1.23
2022-09-15T13:35:32.937Z,2.57
2022-09-15T13:38:32.262Z,2.43
2022-09-15T13:41:42.813Z,2.27
2022-09-15T13:44:26.970Z,2.50
2022-09-15T13:47:08.152Z,1.30
2022-09-15T13:49:51.329Z,2.50
2022-09-15T13:52:33.740Z,1.10
2022-09-15T13:55:19.343Z,1.37
2022-09-15T14:00:55.206Z,2.90
2022-09-15T14:03:27.306Z,1.00
2022-09-15T14:05:57.322Z,2.20
2022-09-15T14:08:27.930Z,2.20
2022-09-15T14:10:59.404Z,1.90
2022-09-15T14:13:29.214Z,1.53
2022-09-15T14:15:58.841Z,1.10
2022-09-15T14:18:26.677Z,3.33
2022-09-15T14:21:03.282Z,2.50
2022-09-15T14:23:31.977Z,5.00
2022-09-15T14:26:01.054Z,1.70
2022-09-15T14:28:33.004Z,2.13
2022-09-15T14:31:01.562Z,1.60
2022-09-15T14:33:37.916Z,2.80
2022-09-15T14:36:15.783Z,1.27
2022-09-15T14:38:43.566Z,3.43
2022-09-15T14:41:20.221Z,4.13
2022-09-15T14:43:47.706Z,1.53
2022-09-15T14:46:17.931Z,1.47
2022-09-15T14:48:45.532Z,2.73
2022-09-15T14:51:24.575Z,1.20
2022-09-15T14:53:55.882Z,0.90
2022-09-15T14:56:27.372Z,1.40
2022-09-15T14:58:58.903Z,2.70
2022-09-15T15:01:33.254Z,4.40
2022-09-15T15:04:10.182Z,1.38
2022-09-15T15:06:52.723Z,1.10
2022-09-15T15:09:24.813Z,2.13
2022-09-15T15:11:56.020Z,1.20
2022-09-15T15:14:23.853Z,2.30
2022-09-15T15:16:53.537Z,2.20
2022-09-15T15:19:33.064Z,1.50
2022-09-15T15:22:15.142Z,1.48
2022-09-15T15:24:44.705Z,4.63
2022-09-15T15:27:25.437Z,15.23
2022-09-15T15:29:53.147Z,3.10
2022-09-15T15:32:24.933Z,2.13
2022-09-15T15:34:54.323Z,1.77
2022-09-15T15:37:31.297Z,2.17
2022-09-15T15:40:03.892Z,1.60
2022-09-15T15:42:31.678Z,0.90
2022-09-15T15:45:01.788Z,1.93
2022-09-15T15:47:32.304Z,0.80
2022-09-15T15:50:13.760Z,0.97
2022-09-15T15:52:43.771Z,1.67
2022-09-15T15:55:14.767Z,2.83
2022-09-15T15:57:42.248Z,6.97
2022-09-15T16:00:21.262Z,2.23
2022-09-15T16:02:49.643Z,3.27
2022-09-15T16:05:17.856Z,1.10
2022-09-15T16:07:48.452Z,2.23
2022-09-15T16:10:17.231Z,1.10
2022-09-15T16:12:44.992Z,6.30
2022-09-15T16:15:14.712Z,1.00
2022-09-15T16:17:46.018Z,1.00
2022-09-15T16:20:15.804Z,2.20
2022-09-15T16:22:43.651Z,2.13
2022-09-15T16:25:18.218Z,1.37
2022-09-15T16:27:45.715Z,1.10
2022-09-15T16:30:13.335Z,1.57
2022-09-15T16:32:41.553Z,2.57
2022-09-15T16:35:20.029Z,1.10
2022-09-15T16:37:47.452Z,1.60
2022-09-15T16:40:18.418Z,1.10
2022-09-15T16:42:49.382Z,1.27
2022-09-15T16:45:23.672Z,0.90
2022-09-15T16:47:51.337Z,2.63
2022-09-15T16:50:18.906Z,1.10
2022-09-15T16:52:46.342Z,1.20
2022-09-15T16:55:24.225Z,4.50
2022-09-15T16:57:52.116Z,1.60
2022-09-15T17:00:20.002Z,1.87
2022-09-15T17:02:47.471Z,2.53
2022-09-15T17:05:21.328Z,3.10
2022-09-15T17:07:48.869Z,1.23
2022-09-15T17:10:18.191Z,1.27
2022-09-15T17:12:46.219Z,7.23
2022-09-15T17:15:21.105Z,6.53
2022-09-15T17:17:48.559Z,2.33
2022-09-15T17:20:17.711Z,2.27
2022-09-15T17:22:45.307Z,1.90
2022-09-15T17:25:21.601Z,1.53
2022-09-15T17:27:49.267Z,4.47
2022-09-15T17:30:17.719Z,1.33
2022-09-15T17:32:45.245Z,2.13
2022-09-15T17:35:17.889Z,0.90
2022-09-15T17:37:45.702Z,3.10
2022-09-15T17:40:14.479Z,2.13
2022-09-15T17:42:44.596Z,2.73
2022-09-15T17:45:17.986Z,2.87
2022-09-15T17:47:46.484Z,3.00
2022-09-15T17:50:14.363Z,1.63
2022-09-15T17:52:41.887Z,1.27
2022-09-15T17:55:15.249Z,1.43
2022-09-15T17:57:44.073Z,4.63
2022-09-15T18:00:13.471Z,3.40
2022-09-15T18:02:42.891Z,1.37
2022-09-15T18:05:19.208Z,3.83
2022-09-15T18:07:46.853Z,2.23
2022-09-15T18:10:15.046Z,1.63
2022-09-15T18:12:47.338Z,1.30
2022-09-15T18:15:21.103Z,2.07
2022-09-15T18:17:49.130Z,2.10
2022-09-15T18:20:18.514Z,2.30
2022-09-15T18:22:46.748Z,1.27
2022-09-15T18:25:18.529Z,1.23
2022-09-15T18:27:49.322Z,2.20
2022-09-15T18:30:18.293Z,0.90
2022-09-15T18:32:46.106Z,1.50
2022-09-15T18:35:18.386Z,2.40
2022-09-15T18:37:46.673Z,2.30
2022-09-15T18:40:17.251Z,1.00
2022-09-15T18:42:46.958Z,2.30
2022-09-15T18:45:16.359Z,2.50
2022-09-15T18:47:44.143Z,6.00
2022-09-15T18:50:13.266Z,4.80
2022-09-15T18:52:42.214Z,1.57
2022-09-15T18:55:14.591Z,2.93
2022-09-15T18:57:42.966Z,1.43
2022-09-15T19:00:15.161Z,1.90
2022-09-15T19:02:43.401Z,1.50
2022-09-15T19:05:12.307Z,1.83
2022-09-15T19:07:39.932Z,2.33
2022-09-15T19:10:08.549Z,3.33
2022-09-15T19:12:36.680Z,2.35
2022-09-15T19:15:10.603Z,1.42
2022-09-15T19:17:40.629Z,1.93
2022-09-15T19:20:09.912Z,2.00
2022-09-15T19:22:37.888Z,1.10
2022-09-15T19:25:07.125Z,1.47
2022-09-15T19:27:35.281Z,2.30
2022-09-15T19:30:02.742Z,1.30
2022-09-15T19:32:30.349Z,1.53
2022-09-15T19:34:59.147Z,7.60
2022-09-15T19:37:27.267Z,1.47
2022-09-15T19:39:54.942Z,2.43
2022-09-15T19:42:22.703Z,4.30
2022-09-15T19:44:50.355Z,1.00
2022-09-15T19:47:18.007Z,1.30
2022-09-15T19:49:45.508Z,1.27
2022-09-15T19:52:14.510Z,1.10
2022-09-15T19:54:42.059Z,4.90
2022-09-15T19:57:10.219Z,2.83
2022-09-15T19:59:37.769Z,2.23
2022-09-15T20:02:05.349Z,3.43
2022-09-15T20:04:34.006Z,2.77
2022-09-15T20:07:01.435Z,0.83
2022-09-15T20:09:30.390Z,2.60
2022-09-15T20:11:57.980Z,1.87
2022-09-15T20:14:25.467Z,1.40
2022-09-15T20:16:55.138Z,1.67
2022-09-15T20:19:25.043Z,2.20
2022-09-15T20:21:54.115Z,3.10
2022-09-15T20:24:22.439Z,1.33
2022-09-15T20:26:52.082Z,4.30
2022-09-15T20:29:20.136Z,1.87
2022-09-15T20:31:48.145Z,2.50
2022-09-15T20:34:16.075Z,4.97
2022-09-15T20:36:44.371Z,11.13
2022-09-15T20:39:14.296Z,2.77
2022-09-15T20:41:44.855Z,3.50
2022-09-15T20:44:14.545Z,1.30
2022-09-15T20:46:42.166Z,2.03
2022-09-15T20:49:10.993Z,1.47
2022-09-15T20:51:38.543Z,1.20
2022-09-15T20:54:06.478Z,5.70
2022-09-15T20:56:35.795Z,1.23
2022-09-15T20:59:05.023Z,1.03
2022-09-15T21:01:37.237Z,2.73
2022-09-15T21:04:05.561Z,4.93
2022-09-15T21:06:33.965Z,1.97
2022-09-15T21:09:01.504Z,2.17
2022-09-15T21:11:30.412Z,2.73
2022-09-15T21:13:58.626Z,0.77
2022-09-15T21:16:28.311Z,1.50
2022-09-15T21:18:59.113Z,3.80
2022-09-15T21:21:29.698Z,2.60
2022-09-15T21:24:01.034Z,3.33
2022-09-15T21:26:30.221Z,4.00
2022-09-15T21:28:58.125Z,2.80
2022-09-15T21:31:28.055Z,1.03
2022-09-15T21:33:58.277Z,1.53
2022-09-15T21:36:27.542Z,1.93
2022-09-15T21:38:57.048Z,1.20
2022-09-15T21:41:27.240Z,2.30
2022-09-15T21:43:55.751Z,1.60
2022-09-15T21:46:25.169Z,3.27
2022-09-15T21:48:52.994Z,1.83
2022-09-15T21:51:24.913Z,1.50
2022-09-15T21:53:54.327Z,2.60
2022-09-15T21:56:22.953Z,1.10
2022-09-15T21:58:50.901Z,2.73
2022-09-15T22:01:21.200Z,0.83
2022-09-15T22:03:51.339Z,1.87
2022-09-15T22:06:20.144Z,0.83
2022-09-15T22:08:49.534Z,1.87
2022-09-15T22:11:16.952Z,5.63
2022-09-15T22:13:45.497Z,2.30
2022-09-15T22:16:15.682Z,2.93
2022-09-15T22:18:43.841Z,1.77
2022-09-15T22:21:13.607Z,1.23
2022-09-15T22:23:41.805Z,1.93
2022-09-15T22:26:13.193Z,2.90
2022-09-15T22:28:40.886Z,3.30
2022-09-15T22:31:10.458Z,2.30
2022-09-15T22:33:40.829Z,0.87
2022-09-15T22:36:10.601Z,3.17
2022-09-15T22:38:38.141Z,2.40
2022-09-15T22:41:07.458Z,2.53
2022-09-15T22:43:36.703Z,2.13
2022-09-15T22:46:04.858Z,0.83
2022-09-15T22:48:32.421Z,5.70
2022-09-15T22:51:00.325Z,2.43
2022-09-15T22:53:28.154Z,2.70
2022-09-15T22:56:05.466Z,1.80
2022-09-15T22:58:33.172Z,1.63
2022-09-15T23:01:05.373Z,1.27
2022-09-15T23:03:33.175Z,1.80
2022-09-15T23:06:01.252Z,1.93
2022-09-15T23:08:29.740Z,2.50
2022-09-15T23:11:02.542Z,1.17
2022-09-15T23:13:30.180Z,2.80
2022-09-15T23:15:57.713Z,2.33
2022-09-15T23:18:27.202Z,2.03
2022-09-15T23:20:59.326Z,2.30
2022-09-15T23:23:28.145Z,2.27
2022-09-15T23:25:56.021Z,1.47
2022-09-15T23:28:23.736Z,2.60
2022-09-15T23:30:55.871Z,1.80
2022-09-15T23:33:25.198Z,3.70
2022-09-15T23:35:54.020Z,2.70
2022-09-15T23:38:22.759Z,1.20
2022-09-15T23:40:50.637Z,2.17
2022-09-15T23:43:18.938Z,0.90
2022-09-15T23:45:47.221Z,8.23
2022-09-15T23:48:15.442Z,1.27
2022-09-15T23:50:43.824Z,1.43
2022-09-15T23:53:12.842Z,1.00
2022-09-15T23:55:40.280Z,2.90
2022-09-15T23:58:07.782Z,2.80
